Time;durP1;ratioP1;P1;durP2;ratioP2;P2;SDS_P1;SDS_P2;PMS_P1;PMS_P2;Temp;Humidity;BMP_temperature;BMP_pressure;BME280_temperature;BME280_humidity;BME280_pressure;Samples;Min_cycle;Max_cycle;Signal;HPM_P1;HPM_P2
2021/05/10 00:01:33;;;;;;;16.52;3.58;;;;;;;15.27;74.90;98462.69;5073445;28;20032;-96
2021/05/10 00:04:00;;;;;;;22.05;3.90;;;;;;;14.85;76.27;98479.94;5073745;28;20021;-95
2021/05/10 00:06:25;;;;;;;15.57;3.15;;;;;;;14.93;76.69;98484.31;5073399;28;20024;-95
2021/05/10 00:08:51;;;;;;;17.58;4.57;;;;;;;14.86;77.66;98474.47;5073408;28;20021;-95
2021/05/10 00:11:16;;;;;;;17.23;3.65;;;;;;;14.98;77.14;98476.69;5072003;28;20521;-94
2021/05/10 00:13:48;;;;;;;17.13;3.33;;;;;;;14.83;77.64;98479.28;5073310;28;20442;-95
2021/05/10 00:16:13;;;;;;;29.58;3.65;;;;;;;14.82;78.25;98491.66;5075940;28;20105;-95
2021/05/10 00:18:39;;;;;;;19.00;3.55;;;;;;;14.96;77.15;98486.59;5073913;28;20104;-95
2021/05/10 00:21:05;;;;;;;15.32;3.40;;;;;;;15.03;77.35;98479.63;5073766;28;20141;-94
2021/05/10 00:23:31;;;;;;;14.30;2.95;;;;;;;15.12;77.17;98493.56;5073652;28;20044;-95
2021/05/10 00:25:56;;;;;;;18.83;3.33;;;;;;;14.98;77.18;98474.03;5073229;28;20474;-95
2021/05/10 00:28:22;;;;;;;19.17;3.65;;;;;;;14.99;77.42;98465.94;5073078;28;20066;-94
2021/05/10 00:30:47;;;;;;;22.20;4.30;;;;;;;14.87;77.74;98467.38;5072698;28;20115;-94
2021/05/10 00:33:13;;;;;;;18.63;4.35;;;;;;;15.03;77.81;98469.84;5072437;28;20124;-95
2021/05/10 00:35:38;;;;;;;22.58;4.32;;;;;;;15.10;76.96;98475.22;5072764;28;20039;-94
2021/05/10 00:38:04;;;;;;;24.80;4.15;;;;;;;15.06;76.76;98450.16;5072790;28;20032;-95
2021/05/10 00:40:32;;;;;;;15.77;2.72;;;;;;;15.12;77.18;98456.56;5072730;28;20077;-94
2021/05/10 00:42:57;;;;;;;13.90;3.38;;;;;;;14.88;78.42;98448.69;5072790;28;20020;-94
2021/05/10 00:45:23;;;;;;;18.67;3.42;;;;;;;14.86;78.53;98452.50;5073005;28;20031;-94
2021/05/10 00:47:48;;;;;;;22.88;3.40;;;;;;;15.07;77.38;98443.88;5072759;28;20481;-94
2021/05/10 00:50:14;;;;;;;16.63;3.40;;;;;;;14.87;78.31;98459.44;5072614;28;20020;-94
2021/05/10 00:52:40;;;;;;;22.10;3.58;;;;;;;14.70;78.52;98452.66;5072906;28;20466;-94
2021/05/10 00:55:08;;;;;;;14.70;3.42;;;;;;;14.83;78.56;98452.84;5072762;28;20107;-94
2021/05/10 00:57:38;;;;;;;16.05;4.13;;;;;;;14.88;78.20;98438.09;5072539;28;20048;-95
2021/05/10 01:00:08;;;;;;;19.13;3.58;;;;;;;14.88;77.86;98421.44;5072347;28;20497;-94
2021/05/10 01:02:35;;;;;;;17.00;3.08;;;;;;;14.88;78.27;98430.19;5072578;28;20108;-94
2021/05/10 01:05:01;;;;;;;16.15;2.78;;;;;;;14.91;78.38;98439.59;5072201;28;20028;-94
2021/05/10 01:07:26;;;;;;;19.02;3.40;;;;;;;14.97;78.52;98444.16;5072065;28;20029;-94
2021/05/10 01:09:51;;;;;;;20.73;3.70;;;;;;;14.80;78.96;98438.19;5052340;28;20029;-94
2021/05/10 01:12:17;;;;;;;19.75;3.35;;;;;;;14.95;78.47;98430.31;5052292;28;20031;-96
2021/05/10 01:14:42;;;;;;;20.92;3.20;;;;;;;14.83;78.91;98437.00;5052342;28;20032;-94
2021/05/10 01:17:08;;;;;;;22.65;3.78;;;;;;;14.99;78.75;98433.41;5052333;28;20455;-94
2021/05/10 01:19:35;;;;;;;20.55;3.47;;;;;;;15.07;78.04;98428.84;5052071;28;20024;-95
2021/05/10 01:22:03;;;;;;;22.83;3.60;;;;;;;14.93;79.51;98427.03;5051891;28;20414;-94
2021/05/10 01:24:29;;;;;;;19.17;3.05;;;;;;;14.98;79.67;98422.00;5052484;28;20021;-95
2021/05/10 01:26:54;;;;;;;25.33;3.83;;;;;;;14.77;79.96;98424.50;5052181;28;20449;-95
2021/05/10 01:29:20;;;;;;;14.38;3.53;;;;;;;14.81;80.10;98429.28;5054531;28;20036;-95
2021/05/10 01:31:47;;;;;;;21.48;4.40;;;;;;;14.70;80.30;98429.69;5071834;28;20060;-94
2021/05/10 01:34:12;;;;;;;25.65;4.25;;;;;;;14.80;80.15;98426.81;5071994;28;20025;-95
2021/05/10 01:36:38;;;;;;;15.23;3.00;;;;;;;14.77;80.48;98427.16;5070820;28;20051;-95
2021/05/10 01:39:04;;;;;;;10.60;2.40;;;;;;;14.83;80.25;98413.22;5072180;28;20183;-94
2021/05/10 01:41:30;;;;;;;20.70;4.22;;;;;;;14.83;80.01;98414.06;5071744;28;20028;-95
2021/05/10 01:43:55;;;;;;;22.75;3.58;;;;;;;14.82;79.60;98412.41;5071800;28;20032;-95
2021/05/10 01:46:20;;;;;;;18.15;2.90;;;;;;;14.88;79.88;98405.59;5071772;28;20460;-95
2021/05/10 01:48:46;;;;;;;15.43;2.83;;;;;;;14.72;79.90;98398.66;5072167;28;20093;-95
2021/05/10 01:51:11;;;;;;;19.00;4.70;;;;;;;14.78;79.37;98413.78;5072024;28;20024;-95
2021/05/10 01:53:37;;;;;;;19.98;4.60;;;;;;;14.72;80.21;98418.97;5071888;28;20514;-95
2021/05/10 01:56:02;;;;;;;14.85;3.10;;;;;;;14.70;80.33;98421.78;5071993;28;20048;-95
2021/05/10 01:58:28;;;;;;;19.50;3.65;;;;;;;14.65;80.28;98424.97;5072008;28;20070;-94
2021/05/10 02:00:53;;;;;;;21.63;6.72;;;;;;;14.77;80.32;98432.44;5072005;28;20020;-94
2021/05/10 02:03:21;;;;;;;21.08;3.95;;;;;;;14.75;80.40;98429.16;5071903;28;20040;-95
2021/05/10 02:05:50;;;;;;;13.70;3.05;;;;;;;14.77;80.01;98435.94;5071942;28;20043;-95
2021/05/10 02:08:16;;;;;;;16.83;3.28;;;;;;;15.01;79.22;98440.16;5071843;28;20028;-94
2021/05/10 02:10:51;;;;;;;18.92;3.58;;;;;;;14.93;79.86;98439.38;5071883;28;20032;-95
2021/05/10 02:13:19;;;;;;;17.45;3.58;;;;;;;14.90;80.57;98442.41;5071740;28;20094;-95
2021/05/10 02:15:47;;;;;;;15.32;2.97;;;;;;;14.87;80.47;98443.59;5072034;28;20032;-95
2021/05/10 02:18:14;;;;;;;23.35;3.35;;;;;;;15.01;79.94;98440.16;5071840;28;20039;-95
2021/05/10 02:20:40;;;;;;;22.58;3.78;;;;;;;15.03;79.09;98440.78;5071819;28;20032;-95
2021/05/10 02:23:25;;;;;;;16.40;2.60;;;;;;;14.96;80.41;98446.97;5071715;28;20534;-94
2021/05/10 02:25:53;;;;;;;26.27;4.20;;;;;;;14.76;80.82;98451.94;5072840;28;20051;-94
2021/05/10 02:28:23;;;;;;;25.65;3.42;;;;;;;15.04;79.71;98449.53;5073723;28;20469;-95
2021/05/10 02:30:49;;;;;;;21.55;3.67;;;;;;;15.02;79.57;98454.16;5073226;28;20028;-94
2021/05/10 02:33:18;;;;;;;17.05;3.67;;;;;;;14.90;79.90;98445.88;5071630;28;20020;-95
2021/05/10 02:35:45;;;;;;;22.25;3.72;;;;;;;14.48;81.44;98445.38;5075212;28;20099;-95
2021/05/10 02:38:14;;;;;;;19.00;3.28;;;;;;;14.75;80.64;98445.00;5075328;28;20052;-94
2021/05/10 02:40:39;;;;;;;20.23;3.63;;;;;;;14.92;79.89;98441.22;5075210;28;20128;-95
2021/05/10 02:43:05;;;;;;;22.90;4.13;;;;;;;14.67;80.13;98448.53;5075044;28;20550;-94
2021/05/10 02:45:31;;;;;;;23.58;5.80;;;;;;;14.83;80.09;98447.56;5075199;28;20098;-95
2021/05/10 02:47:56;;;;;;;21.52;4.20;;;;;;;14.58;80.77;98452.28;5074937;28;20421;-94
2021/05/10 02:50:24;;;;;;;20.05;3.30;;;;;;;14.85;79.60;98448.25;5075175;28;20390;-94
2021/05/10 02:52:51;;;;;;;16.23;3.03;;;;;;;14.88;79.53;98438.09;5075092;28;20548;-96
2021/05/10 02:55:17;;;;;;;19.17;3.63;;;;;;;14.92;79.22;98433.28;5075095;28;20470;-95
2021/05/10 02:57:44;;;;;;;19.40;2.72;;;;;;;14.73;79.74;98441.72;5075007;28;20389;-95
2021/05/10 03:00:12;;;;;;;22.02;3.63;;;;;;;14.59;79.52;98441.53;5074855;28;20059;-94
2021/05/10 03:02:37;;;;;;;19.60;3.20;;;;;;;14.73;78.83;98426.72;5074284;28;20033;-95
2021/05/10 03:05:04;;;;;;;30.77;4.55;;;;;;;14.65;78.79;98430.25;5074851;28;20070;-96
2021/05/10 03:07:30;;;;;;;23.42;3.55;;;;;;;14.79;78.70;98439.22;5074829;28;20028;-95
2021/05/10 03:09:55;;;;;;;17.88;3.25;;;;;;;14.80;78.17;98450.59;5074886;28;20025;-96
2021/05/10 03:12:21;;;;;;;19.95;3.88;;;;;;;14.77;78.34;98440.38;5074717;28;20451;-95
2021/05/10 03:14:46;;;;;;;17.08;3.03;;;;;;;14.67;78.48;98444.09;5074833;28;20028;-95
2021/05/10 03:17:11;;;;;;;18.77;3.00;;;;;;;14.76;78.74;98441.38;5074698;28;20031;-96
2021/05/10 03:19:37;;;;;;;15.23;3.30;;;;;;;14.70;78.10;98447.38;5074891;28;20467;-95
2021/05/10 03:22:03;;;;;;;14.30;3.40;;;;;;;14.82;78.25;98448.59;5074634;28;20074;-95
2021/05/10 03:24:28;;;;;;;17.65;3.30;;;;;;;14.58;78.45;98447.78;5074630;28;20017;-95
2021/05/10 03:26:54;;;;;;;15.70;3.35;;;;;;;14.47;79.25;98453.47;5074100;28;20025;-95
2021/05/10 03:29:19;;;;;;;21.73;3.30;;;;;;;14.45;79.42;98450.19;5073909;28;20025;-95
2021/05/10 03:31:44;;;;;;;21.55;3.78;;;;;;;14.57;79.14;98455.91;5073215;28;20029;-96
2021/05/10 03:34:10;;;;;;;21.27;3.70;;;;;;;14.55;79.29;98455.22;5074415;28;20056;-96
2021/05/10 03:36:35;;;;;;;23.15;4.63;;;;;;;14.51;79.33;98457.38;5073384;28;20027;-95
2021/05/10 03:39:01;;;;;;;24.20;3.63;;;;;;;14.51;78.68;98454.75;5073996;28;20024;-93
2021/05/10 03:41:26;;;;;;;22.88;3.72;;;;;;;14.46;79.32;98457.13;5073759;28;20031;-93
2021/05/10 03:43:52;;;;;;;24.65;4.32;;;;;;;14.52;79.18;98458.22;5074124;28;20028;-95
2021/05/10 03:46:17;;;;;;;21.35;3.63;;;;;;;14.52;79.34;98459.03;5074079;28;20075;-96
2021/05/10 03:48:43;;;;;;;17.40;3.83;;;;;;;14.56;78.68;98462.16;5074103;28;20032;-94
2021/05/10 03:51:09;;;;;;;18.52;3.35;;;;;;;14.60;78.92;98464.28;5074043;28;20025;-96
2021/05/10 03:53:35;;;;;;;22.35;3.58;;;;;;;14.37;79.49;98461.63;5073922;28;20029;-95
2021/05/10 03:56:00;;;;;;;15.25;3.13;;;;;;;14.57;78.01;98462.00;5074219;28;20029;-95
2021/05/10 03:58:26;;;;;;;21.35;3.90;;;;;;;14.38;78.52;98457.19;5073636;28;20462;-95
2021/05/10 04:00:52;;;;;;;20.80;3.00;;;;;;;14.51;78.02;98460.03;5073464;28;20484;-95
2021/05/10 04:03:18;;;;;;;20.98;3.33;;;;;;;14.40;78.43;98469.19;5073396;28;20025;-95
2021/05/10 04:13:38;;;;;;;14.30;3.55;;;;;;;14.46;77.86;98462.41;5073666;28;20367;-94
2021/05/10 04:16:04;;;;;;;16.67;2.55;;;;;;;14.41;78.98;98470.00;5073331;28;20027;-95
2021/05/10 04:18:30;;;;;;;17.48;3.78;;;;;;;14.28;78.81;98468.78;5073457;28;20059;-94
2021/05/10 04:20:55;;;;;;;17.05;2.63;;;;;;;14.48;78.34;98468.31;5073514;28;20024;-95
2021/05/10 04:23:21;;;;;;;18.80;2.97;;;;;;;14.42;79.10;98467.19;5073101;28;20466;-94
2021/05/10 04:25:49;;;;;;;26.58;4.03;;;;;;;14.43;78.50;98473.28;5073468;28;20039;-95
2021/05/10 04:28:15;;;;;;;17.75;4.35;;;;;;;14.50;78.26;98474.25;5072933;28;20474;-96
2021/05/10 04:30:41;;;;;;;21.27;3.90;;;;;;;14.39;79.25;98480.75;5073347;28;20501;-95
2021/05/10 04:33:06;;;;;;;21.30;4.10;;;;;;;14.37;79.73;98474.00;5071601;28;20028;-95
2021/05/10 04:35:33;;;;;;;18.98;2.72;;;;;;;14.42;79.68;98483.03;5072934;28;20025;-94
2021/05/10 04:37:59;;;;;;;16.70;3.20;;;;;;;14.42;79.90;98482.22;5072812;28;20462;-94
2021/05/10 04:40:24;;;;;;;23.52;3.50;;;;;;;14.48;79.82;98489.44;5071913;28;20071;-95
2021/05/10 04:42:50;;;;;;;19.83;3.63;;;;;;;14.40;79.91;98484.22;5072657;28;20060;-94
2021/05/10 04:45:15;;;;;;;19.73;2.88;;;;;;;14.45;79.63;98492.41;5071418;28;20039;-95
2021/05/10 04:47:42;;;;;;;17.10;2.90;;;;;;;14.53;79.51;98499.47;5072747;28;20024;-95
2021/05/10 04:50:10;;;;;;;19.10;3.72;;;;;;;14.18;80.63;98494.59;5072804;28;20020;-94
2021/05/10 04:52:36;;;;;;;14.07;2.83;;;;;;;14.36;80.06;98494.31;5072751;28;20025;-95
2021/05/10 04:55:03;;;;;;;18.65;2.97;;;;;;;14.44;79.18;98493.44;5072546;28;20032;-94
2021/05/10 04:57:29;;;;;;;10.55;2.25;;;;;;;14.83;77.58;98495.97;5071962;28;20027;-95
2021/05/10 04:59:54;;;;;;;18.15;3.17;;;;;;;14.91;77.35;98503.00;5072599;28;20024;-94
2021/05/10 05:02:19;;;;;;;15.60;3.08;;;;;;;14.78;77.91;98508.06;5072536;28;20111;-94
2021/05/10 05:04:45;;;;;;;23.45;4.13;;;;;;;14.65;78.99;98508.66;5072374;28;20101;-94
2021/05/10 05:07:10;;;;;;;17.73;2.83;;;;;;;14.62;78.60;98504.56;5073057;28;20032;-94
2021/05/10 05:09:35;;;;;;;28.52;4.80;;;;;;;14.48;78.81;98498.19;5073102;28;20025;-94
2021/05/10 05:12:01;;;;;;;17.55;3.15;;;;;;;14.76;77.80;98504.78;5072895;28;20108;-95
2021/05/10 05:14:26;;;;;;;15.05;3.40;;;;;;;14.71;77.91;98507.97;5072847;28;20052;-95
2021/05/10 05:16:51;;;;;;;31.08;5.57;;;;;;;14.49;78.38;98512.19;5073227;28;20056;-95
2021/05/10 05:19:17;;;;;;;13.30;3.17;;;;;;;14.62;78.40;98509.84;5072429;28;20024;-95
2021/05/10 05:21:42;;;;;;;15.65;3.17;;;;;;;14.66;78.67;98521.69;5072244;28;20035;-94
2021/05/10 05:24:07;;;;;;;22.13;3.35;;;;;;;14.54;78.87;98519.63;5072454;28;20108;-95
2021/05/10 05:26:33;;;;;;;20.15;3.20;;;;;;;14.49;79.21;98520.13;5072238;28;20382;-95
2021/05/10 05:28:58;;;;;;;16.58;2.45;;;;;;;14.75;78.06;98522.47;5070795;28;20032;-95
2021/05/10 05:31:23;;;;;;;13.35;2.80;;;;;;;14.38;79.02;98518.72;5072255;28;20450;-95
2021/05/10 05:33:49;;;;;;;22.02;3.05;;;;;;;14.92;77.69;98525.78;5072159;28;20427;-95
2021/05/10 05:36:14;;;;;;;19.15;3.30;;;;;;;14.78;76.89;98521.28;5072476;28;20293;-96
2021/05/10 05:38:41;;;;;;;23.45;3.70;;;;;;;14.78;77.27;98523.91;5072194;28;20466;-94
2021/05/10 05:41:10;;;;;;;19.30;3.28;;;;;;;14.96;77.14;98524.41;5072282;28;20024;-95
2021/05/10 05:43:35;;;;;;;18.00;3.83;;;;;;;14.85;76.73;98525.69;5074210;28;20025;-95
2021/05/10 05:46:02;;;;;;;15.77;2.80;;;;;;;14.93;75.29;98527.44;5072355;28;20426;-95
2021/05/10 05:48:28;;;;;;;12.93;2.50;;;;;;;14.90;75.58;98527.78;5072450;28;20544;-95
2021/05/10 05:50:53;;;;;;;14.52;3.10;;;;;;;15.03;75.37;98524.53;5072259;28;20024;-93
2021/05/10 05:53:18;;;;;;;21.98;4.00;;;;;;;14.89;75.82;98526.16;5072088;28;20024;-95
2021/05/10 05:55:44;;;;;;;21.17;3.08;;;;;;;14.52;77.14;98522.41;5072489;28;20491;-94
2021/05/10 05:58:10;;;;;;;23.80;4.03;;;;;;;14.70;76.99;98524.00;5074044;28;20082;-95
2021/05/10 06:00:35;;;;;;;12.43;2.35;;;;;;;14.94;75.97;98523.78;5074444;28;20100;-95
2021/05/10 06:03:01;;;;;;;18.58;3.50;;;;;;;14.86;76.14;98521.22;5072932;28;20028;-95
2021/05/10 06:05:26;;;;;;;18.58;3.42;;;;;;;15.19;75.36;98529.66;5072850;28;20024;-94
2021/05/10 06:07:51;;;;;;;20.50;3.45;;;;;;;14.96;76.19;98527.06;5074217;28;20355;-94
2021/05/10 06:10:20;;;;;;;19.65;2.85;;;;;;;14.97;75.90;98526.06;5076759;28;20443;-95
2021/05/10 06:12:48;;;;;;;19.92;2.80;;;;;;;14.92;76.53;98512.56;5078917;28;20108;-95
2021/05/10 06:15:15;;;;;;;24.40;5.03;;;;;;;14.80;76.50;98528.03;5083926;28;20092;-95
2021/05/10 06:17:40;;;;;;;22.80;3.63;;;;;;;15.11;75.85;98524.47;5081352;28;20103;-93
2021/05/10 06:20:08;;;;;;;21.17;3.55;;;;;;;15.11;75.84;98528.94;5084816;28;20133;-93
2021/05/10 06:22:35;;;;;;;18.13;3.13;;;;;;;15.03;75.46;98533.28;5084315;28;20030;-93
2021/05/10 06:25:01;;;;;;;19.77;4.22;;;;;;;15.21;74.96;98540.88;5081801;28;20027;-94
2021/05/10 06:27:26;;;;;;;19.70;3.10;;;;;;;15.21;74.87;98529.50;5080167;28;20092;-94
2021/05/10 06:29:52;;;;;;;24.75;3.17;;;;;;;15.05;75.34;98547.13;5084060;28;20497;-92
2021/05/10 06:32:17;;;;;;;19.23;3.45;;;;;;;15.04;75.86;98534.09;5085852;28;20036;-94
2021/05/10 06:34:42;;;;;;;16.75;3.65;;;;;;;14.97;76.67;98546.38;5087303;28;20024;-90
2021/05/10 06:37:08;;;;;;;19.42;2.58;;;;;;;15.36;74.92;98537.44;5092134;28;20021;-93
2021/05/10 06:39:33;;;;;;;17.77;3.10;;;;;;;15.59;73.97;98546.13;5090884;28;20028;-94
2021/05/10 06:41:58;;;;;;;16.05;3.83;;;;;;;15.70;73.71;98544.84;5094335;28;20036;-93
2021/05/10 06:44:24;;;;;;;21.05;3.47;;;;;;;15.49;72.92;98542.13;5097827;28;20036;-93
2021/05/10 06:46:49;;;;;;;17.98;2.95;;;;;;;15.57;74.68;98540.19;5093952;28;20016;-94
2021/05/10 06:49:15;;;;;;;18.38;2.95;;;;;;;15.62;76.22;98552.84;5094876;28;20031;-93
2021/05/10 06:51:40;;;;;;;15.45;3.53;;;;;;;15.88;75.64;98557.75;5091900;28;20040;-92
2021/05/10 06:54:05;;;;;;;20.38;3.00;;;;;;;15.62;76.18;98547.56;5085180;28;20025;-92
2021/05/10 06:56:31;;;;;;;15.68;2.88;;;;;;;15.60;76.14;98545.13;5089406;28;20017;-92
2021/05/10 06:58:56;;;;;;;20.00;3.10;;;;;;;14.91;79.64;98549.72;5087072;28;20519;-93
2021/05/10 07:01:21;;;;;;;18.42;3.00;;;;;;;15.13;79.72;98553.38;5083055;28;20035;-93
2021/05/10 07:03:47;;;;;;;14.50;2.47;;;;;;;14.95;80.61;98543.94;5075492;28;20115;-94
2021/05/10 07:06:12;;;;;;;17.77;2.83;;;;;;;14.98;80.64;98546.19;5075016;28;20078;-94
2021/05/10 07:08:37;;;;;;;18.50;3.65;;;;;;;15.20;80.61;98555.09;5075075;28;20090;-95
2021/05/10 07:11:03;;;;;;;16.80;3.13;;;;;;;14.91;81.95;98568.22;5074526;28;20111;-93
2021/05/10 07:13:28;;;;;;;15.85;3.20;;;;;;;14.75;82.04;98563.88;5074540;28;20097;-93
2021/05/10 07:15:54;;;;;;;13.38;2.10;;;;;;;15.02;81.88;98565.16;5074402;28;20028;-92
2021/05/10 07:18:19;;;;;;;13.02;2.17;;;;;;;15.17;81.18;98568.69;5069897;28;20061;-93
2021/05/10 07:20:46;;;;;;;10.75;2.22;;;;;;;15.35;80.53;98557.78;5062741;28;20020;-93
2021/05/10 07:23:14;;;;;;;15.07;2.35;;;;;;;15.26;79.95;98564.13;5058977;28;20020;-93
2021/05/10 07:25:49;;;;;;;15.95;3.15;;;;;;;15.41;79.85;98562.34;5055804;28;20025;-93
2021/05/10 07:28:16;;;;;;;16.15;3.33;;;;;;;15.83;78.62;98563.56;5070801;28;20436;-93
2021/05/10 07:30:43;;;;;;;14.45;2.50;;;;;;;15.35;79.20;98565.72;5074101;28;20124;-93
2021/05/10 07:33:08;;;;;;;18.20;2.70;;;;;;;15.05;79.50;98573.56;5074350;28;20028;-94
2021/05/10 07:35:34;;;;;;;15.48;2.45;;;;;;;15.53;78.27;98569.84;5073716;28;20025;-94
2021/05/10 07:38:00;;;;;;;18.48;2.53;;;;;;;15.64;77.35;98561.47;5055299;28;20086;-94
2021/05/10 07:40:29;;;;;;;9.70;2.50;;;;;;;15.80;78.23;98563.94;5054554;28;20108;-94
2021/05/10 07:42:55;;;;;;;13.57;2.42;;;;;;;15.51;77.91;98571.84;5068049;28;20382;-94
2021/05/10 07:45:21;;;;;;;16.17;2.35;;;;;;;16.35;76.15;98567.09;5064952;28;20028;-94
2021/05/10 07:47:52;;;;;;;13.15;2.53;;;;;;;16.38;74.76;98568.53;5057069;28;20391;-94
2021/05/10 07:50:19;;;;;;;11.60;2.00;;;;;;;16.23;72.73;98566.75;5069794;28;20020;-95
2021/05/10 07:52:44;;;;;;;10.32;1.92;;;;;;;16.50;72.35;98561.72;5061058;28;20059;-93
2021/05/10 07:55:10;;;;;;;9.70;2.25;;;;;;;16.80;72.25;98570.38;5075302;28;20021;-94
2021/05/10 07:57:35;;;;;;;14.75;2.67;;;;;;;16.85;71.63;98569.88;5066770;28;20016;-92
2021/05/10 08:00:07;;;;;;;12.57;2.10;;;;;;;17.18;70.82;98575.47;5057125;28;20056;-92
2021/05/10 08:02:33;;;;;;;21.30;2.88;;;;;;;16.63;72.04;98577.78;5061685;28;20040;-89
2021/05/10 08:04:58;;;;;;;10.07;2.03;;;;;;;16.85;71.28;98575.16;5064632;28;20028;-89
2021/05/10 08:07:23;;;;;;;9.60;2.03;;;;;;;16.79;71.79;98570.59;5058888;28;20031;-90
2021/05/10 08:09:49;;;;;;;18.60;2.40;;;;;;;16.85;70.63;98572.50;5071667;28;20115;-90
2021/05/10 08:12:15;;;;;;;10.70;1.98;;;;;;;17.41;69.95;98569.91;5063650;28;20029;-89
2021/05/10 08:14:40;;;;;;;12.07;2.30;;;;;;;18.30;65.75;98562.25;5062648;28;20040;-90
2021/05/10 08:17:07;;;;;;;15.82;2.75;;;;;;;18.93;63.18;98581.44;5073467;28;20033;-90
2021/05/10 08:19:33;;;;;;;15.30;2.45;;;;;;;19.03;60.08;98589.81;5066574;28;20111;-91
2021/05/10 08:22:03;;;;;;;9.25;1.98;;;;;;;19.26;60.10;98582.47;5072820;28;20481;-89
2021/05/10 08:24:30;;;;;;;7.63;1.83;;;;;;;20.25;58.40;98580.66;5070931;28;20261;-94
2021/05/10 08:26:55;;;;;;;11.77;2.47;;;;;;;20.26;57.52;98571.63;5071921;28;20024;-96
2021/05/10 08:29:21;;;;;;;10.00;2.15;;;;;;;21.42;54.69;98580.34;5069781;28;20035;-96
2021/05/10 08:31:47;;;;;;;13.52;2.22;;;;;;;21.39;50.06;98598.41;5069440;28;20028;-95
2021/05/10 08:34:17;;;;;;;16.83;2.80;;;;;;;20.59;54.23;98587.50;5071508;28;20035;-96
2021/05/10 08:36:43;;;;;;;8.73;1.70;;;;;;;20.24;56.57;98579.84;5074116;28;20386;-96
2021/05/10 08:39:09;;;;;;;10.60;2.33;;;;;;;19.91;55.68;98591.44;5058369;28;20033;-96
2021/05/10 08:41:36;;;;;;;7.38;1.98;;;;;;;20.09;54.10;98598.75;5070503;28;20539;-96
2021/05/10 08:44:05;;;;;;;15.20;2.78;;;;;;;18.72;63.39;98593.03;5070739;28;20032;-95
2021/05/10 08:46:32;;;;;;;13.55;2.55;;;;;;;18.83;63.38;98599.63;5059200;28;20028;-93
2021/05/10 08:48:57;;;;;;;7.75;1.55;;;;;;;18.38;64.64;98607.22;5070238;28;20032;-93
2021/05/10 08:51:24;;;;;;;8.45;1.50;;;;;;;18.90;65.42;98611.09;5069103;28;20124;-94
2021/05/10 08:53:49;;;;;;;9.68;2.22;;;;;;;17.68;67.64;98607.25;5072287;28;20024;-92
2021/05/10 08:56:14;;;;;;;8.82;1.80;;;;;;;16.98;70.89;98607.09;5072835;28;20033;-94
2021/05/10 08:58:42;;;;;;;6.72;1.02;;;;;;;16.34;70.56;98612.28;5057027;28;20082;-93
2021/05/10 09:01:09;;;;;;;11.32;1.60;;;;;;;16.13;73.42;98599.78;5058794;28;20025;-94
2021/05/10 09:03:40;;;;;;;9.95;2.05;;;;;;;17.03;73.31;98620.59;5055444;28;20441;-92
2021/05/10 09:06:11;;;;;;;7.32;2.03;;;;;;;18.30;71.19;98607.41;5059666;28;20028;-92
2021/05/10 09:08:44;;;;;;;14.98;2.28;;;;;;;19.05;66.74;98602.91;5053249;28;20041;-91
2021/05/10 09:11:12;;;;;;;11.55;1.92;;;;;;;20.13;63.61;98597.28;5053869;28;20028;-93
2021/05/10 09:13:38;;;;;;;9.88;1.98;;;;;;;21.23;61.10;98593.63;5063680;28;20032;-93
2021/05/10 09:16:04;;;;;;;7.32;1.67;;;;;;;21.28;57.46;98598.31;5073136;28;20035;-94
2021/05/10 09:18:30;;;;;;;11.50;2.10;;;;;;;21.68;55.95;98600.66;5066007;28;20029;-93
2021/05/10 09:21:28;;;;;;;12.52;2.35;;;;;;;20.93;54.82;98596.09;5062365;28;20028;-94
2021/05/10 09:23:55;;;;;;;10.07;2.15;;;;;;;20.24;55.85;98609.16;5055533;28;20807;-92
2021/05/10 09:26:33;;;;;;;14.48;2.17;;;;;;;19.59;59.81;98609.09;5060955;28;20046;-93
2021/05/10 09:28:59;;;;;;;13.93;2.35;;;;;;;20.21;58.89;98625.56;5066367;28;20498;-93
2021/05/10 09:31:26;;;;;;;13.18;2.72;;;;;;;19.49;61.98;98612.16;5070079;28;20062;-92
2021/05/10 09:33:51;;;;;;;15.55;3.47;;;;;;;19.02;59.07;98636.06;5073395;28;20025;-92
2021/05/10 09:36:39;;;;;;;17.88;3.92;;;;;;;18.06;63.40;98622.81;5063392;28;20052;-93
2021/05/10 09:39:08;;;;;;;18.02;3.10;;;;;;;17.91;66.24;98644.19;5065642;28;20021;-92
2021/05/10 09:41:34;;;;;;;13.00;2.78;;;;;;;18.39;62.58;98641.56;5072405;28;20541;-93
2021/05/10 09:44:07;;;;;;;10.93;2.33;;;;;;;18.42;63.14;98645.66;5075672;28;20063;-94
2021/05/10 09:46:44;;;;;;;14.27;2.85;;;;;;;19.78;56.91;98645.53;5069707;28;20029;-93
2021/05/10 09:49:13;;;;;;;10.82;2.47;;;;;;;21.33;55.27;98636.69;5074028;28;20029;-94
2021/05/10 09:51:38;;;;;;;10.88;2.13;;;;;;;21.71;53.29;98649.13;5059522;28;20025;-94
2021/05/10 09:54:13;;;;;;;8.68;1.75;;;;;;;21.20;51.56;98648.25;5063167;28;20025;-94
2021/05/10 09:56:38;;;;;;;14.00;3.00;;;;;;;21.84;50.50;98644.69;5070443;28;20078;-94
2021/05/10 09:59:12;;;;;;;10.00;2.03;;;;;;;22.01;49.99;98653.75;5070361;28;20028;-95
2021/05/10 10:01:46;;;;;;;9.45;2.28;;;;;;;22.33;47.54;98672.38;5076099;28;20028;-94
2021/05/10 10:04:14;;;;;;;14.13;2.85;;;;;;;22.97;46.24;98651.41;5084290;28;20665;-96
2021/05/10 10:06:40;;;;;;;15.75;3.13;;;;;;;23.18;44.81;98660.78;5074679;28;20029;-96
2021/05/10 10:09:06;;;;;;;9.63;2.05;;;;;;;22.34;45.52;98668.66;5080680;28;20028;-93
2021/05/10 10:11:32;;;;;;;13.32;2.22;;;;;;;21.37;50.47;98685.94;5066576;28;20548;-96
2021/05/10 10:13:59;;;;;;;15.40;2.88;;;;;;;21.89;47.85;98666.22;5071707;28;20060;-94
2021/05/10 10:16:27;;;;;;;14.55;3.17;;;;;;;22.18;46.22;98664.69;5066939;28;20067;-93
2021/05/10 10:18:53;;;;;;;13.13;2.58;;;;;;;22.44;45.29;98655.59;5072031;28;20086;-93
2021/05/10 10:21:21;;;;;;;16.13;2.80;;;;;;;21.46;47.57;98683.00;5077680;28;20025;-92
2021/05/10 10:24:13;;;;;;;10.35;2.15;;;;;;;22.77;45.50;98675.75;5064276;28;20048;-94
2021/05/10 10:26:39;;;;;;;12.65;3.03;;;;;;;22.23;43.69;98674.72;5073542;28;20094;-92
2021/05/10 10:29:11;;;;;;;9.88;1.73;;;;;;;21.71;46.76;98675.00;5076186;28;20040;-94
2021/05/10 10:31:49;;;;;;;7.70;1.70;;;;;;;21.63;46.29;98689.47;5066299;28;20482;-95
2021/05/10 10:34:20;;;;;;;10.23;2.38;;;;;;;20.70;47.81;98696.16;5071424;28;20531;-93
2021/05/10 10:36:54;;;;;;;11.97;3.27;;;;;;;21.59;47.13;98696.28;5061215;28;20573;-94
2021/05/10 10:39:22;;;;;;;9.25;1.75;;;;;;;21.42;45.94;98697.81;5066873;28;20269;-93
2021/05/10 10:42:11;;;;;;;12.30;1.80;;;;;;;20.00;49.91;98679.91;5066615;28;20024;-93
2021/05/10 10:44:47;;;;;;;11.05;2.65;;;;;;;22.18;46.10;98702.94;5059191;28;20040;-92
2021/05/10 10:47:15;;;;;;;12.38;2.10;;;;;;;22.18;45.29;98702.13;5060329;28;20467;-93
2021/05/10 10:49:42;;;;;;;11.27;2.13;;;;;;;22.62;44.80;98712.78;5075771;28;20119;-93
2021/05/10 10:52:28;;;;;;;12.50;2.10;;;;;;;21.94;45.23;98709.94;5076211;28;20033;-93
2021/05/10 10:55:41;;;;;;;8.38;1.50;;;;;;;21.78;45.82;98714.00;5068728;28;20024;-93
2021/05/10 10:58:20;;;;;;;8.18;2.10;;;;;;;21.57;44.02;98719.72;5049151;28;20048;-93
2021/05/10 11:01:08;;;;;;;10.52;2.15;;;;;;;21.87;44.20;98729.75;5077761;28;20024;-92
2021/05/10 11:03:35;;;;;;;11.00;1.75;;;;;;;21.08;45.01;98737.22;5076270;28;20032;-94
2021/05/10 11:06:01;;;;;;;11.82;2.30;;;;;;;20.65;46.10;98743.97;5059754;28;20478;-93
2021/05/10 11:08:39;;;;;;;6.05;1.42;;;;;;;19.68;46.90;98756.13;5064897;28;20040;-93
2021/05/10 11:11:05;;;;;;;7.03;1.38;;;;;;;19.83;48.37;98742.63;5056664;28;20382;-94
2021/05/10 11:13:39;;;;;;;10.65;2.10;;;;;;;20.05;47.64;98741.41;5070250;28;20027;-93
2021/05/10 11:16:18;;;;;;;15.85;3.13;;;;;;;19.98;47.11;98760.06;5062618;28;20032;-93
2021/05/10 11:18:51;;;;;;;10.65;1.90;;;;;;;20.80;47.17;98759.72;5075427;28;20027;-92
2021/05/10 11:21:22;;;;;;;12.70;2.05;;;;;;;20.64;47.22;98749.53;5072323;28;20029;-93
2021/05/10 11:23:57;;;;;;;8.50;2.15;;;;;;;21.19;46.46;98749.91;5057623;28;20053;-92
2021/05/10 11:26:36;;;;;;;10.35;1.67;;;;;;;21.07;45.43;98759.59;5070180;28;20033;-93
2021/05/10 11:29:01;;;;;;;9.95;1.85;;;;;;;21.16;45.91;98748.47;5074217;28;20108;-94
2021/05/10 11:31:42;;;;;;;9.90;2.63;;;;;;;21.33;44.98;98762.13;5075629;28;20052;-94
2021/05/10 11:34:12;;;;;;;11.77;2.22;;;;;;;20.99;44.21;98766.84;5059687;28;20473;-94
2021/05/10 11:36:45;;;;;;;13.05;1.65;;;;;;;21.14;44.37;98763.88;5076573;28;20501;-88